sensor_id;sensor_type;location;lat;lon;timestamp;pressure;altitude;pressure_sealevel;temperature;humidity
13033;BME280;6583;42.632;23.298;2023-02-22T00:01:24;70627.56;;;-146.40;35.77
13033;BME280;6583;42.632;23.298;2023-02-22T00:04:00;70627.56;;;-146.40;36.26
13033;BME280;6583;42.632;23.298;2023-02-22T00:06:27;70639.69;;;-146.40;36.22
13033;BME280;6583;42.632;23.298;2023-02-22T00:08:55;70637.69;;;-146.40;36.44
13033;BME280;6583;42.632;23.298;2023-02-22T00:11:24;70649.81;;;-146.40;36.38
13033;BME280;6583;42.632;23.298;2023-02-22T00:13:51;70659.94;;;-146.40;36.94
13033;BME280;6583;42.632;23.298;2023-02-22T00:16:22;70670.06;;;-146.40;37.40
13033;BME280;6583;42.632;23.298;2023-02-22T00:18:49;70676.13;;;-146.40;38.09
13033;BME280;6583;42.632;23.298;2023-02-22T00:21:16;70694.34;;;-146.40;38.69
13033;BME280;6583;42.632;23.298;2023-02-22T00:23:45;70704.44;;;-146.40;39.26
13033;BME280;6583;42.632;23.298;2023-02-22T00:26:13;70716.59;;;-146.40;39.62
13033;BME280;6583;42.632;23.298;2023-02-22T00:28:45;70728.72;;;-146.40;40.04
13033;BME280;6583;42.632;23.298;2023-02-22T00:31:12;70728.72;;;-146.40;39.87
13033;BME280;6583;42.632;23.298;2023-02-22T00:33:39;70728.72;;;-146.40;40.77
13033;BME280;6583;42.632;23.298;2023-02-22T00:36:07;70744.91;;;-146.40;40.95
13033;BME280;6583;42.632;23.298;2023-02-22T00:38:34;70748.97;;;-146.40;40.77
13033;BME280;6583;42.632;23.298;2023-02-22T00:41:01;70761.09;;;-146.40;41.08
13033;BME280;6583;42.632;23.298;2023-02-22T00:43:27;70765.16;;;-146.40;41.88
13033;BME280;6583;42.632;23.298;2023-02-22T00:45:55;70777.28;;;-146.40;41.95
13033;BME280;6583;42.632;23.298;2023-02-22T00:48:22;70777.28;;;-146.40;41.76
13033;BME280;6583;42.632;23.298;2023-02-22T00:50:49;70779.31;;;-146.40;41.68
13033;BME280;6583;42.632;23.298;2023-02-22T00:53:20;70789.44;;;-146.40;42.00
13033;BME280;6583;42.632;23.298;2023-02-22T00:55:47;70789.44;;;-146.40;41.78
13033;BME280;6583;42.632;23.298;2023-02-22T00:58:13;70791.44;;;-146.40;42.01
13033;BME280;6583;42.632;23.298;2023-02-22T01:00:41;70795.50;;;-146.40;42.76
13033;BME280;6583;42.632;23.298;2023-02-22T01:03:11;70805.63;;;-146.40;43.44
13033;BME280;6583;42.632;23.298;2023-02-22T01:05:39;70809.66;;;-146.40;43.36
13033;BME280;6583;42.632;23.298;2023-02-22T01:08:10;70813.72;;;-146.40;43.27
13033;BME280;6583;42.632;23.298;2023-02-22T01:10:38;70815.72;;;-146.40;43.12
13033;BME280;6583;42.632;23.298;2023-02-22T01:13:06;70821.81;;;-146.40;42.76
13033;BME280;6583;42.632;23.298;2023-02-22T01:15:38;70821.81;;;-146.40;42.46
13033;BME280;6583;42.632;23.298;2023-02-22T01:18:06;70825.84;;;-146.40;42.43
13033;BME280;6583;42.632;23.298;2023-02-22T01:20:34;70825.84;;;-146.40;42.77
13033;BME280;6583;42.632;23.298;2023-02-22T01:23:02;70829.91;;;-146.40;43.47
13033;BME280;6583;42.632;23.298;2023-02-22T01:25:33;70840.00;;;-146.40;43.44
13033;BME280;6583;42.632;23.298;2023-02-22T01:28:00;70835.97;;;-146.40;43.00
13033;BME280;6583;42.632;23.298;2023-02-22T01:30:29;70835.97;;;-146.40;43.00
13033;BME280;6583;42.632;23.298;2023-02-22T01:32:58;70833.94;;;-146.40;43.10
13033;BME280;6583;42.632;23.298;2023-02-22T01:35:27;70825.84;;;-146.40;43.30
13033;BME280;6583;42.632;23.298;2023-02-22T01:37:56;70829.91;;;-146.40;43.39
13033;BME280;6583;42.632;23.298;2023-02-22T01:40:25;70831.91;;;-146.40;43.44
13033;BME280;6583;42.632;23.298;2023-02-22T01:42:54;70833.94;;;-146.40;43.58
13033;BME280;6583;42.632;23.298;2023-02-22T01:45:47;70842.03;;;-146.40;44.07
13033;BME280;6583;42.632;23.298;2023-02-22T01:48:18;70852.16;;;-146.40;44.62
13033;BME280;6583;42.632;23.298;2023-02-22T01:50:49;70852.16;;;-146.40;44.34
13033;BME280;6583;42.632;23.298;2023-02-22T01:53:21;70862.28;;;-146.40;44.68
13033;BME280;6583;42.632;23.298;2023-02-22T01:55:49;70870.38;;;-146.40;44.91
13033;BME280;6583;42.632;23.298;2023-02-22T01:58:17;70864.28;;;-146.40;45.02
13033;BME280;6583;42.632;23.298;2023-02-22T02:00:45;70870.38;;;-146.40;44.85
13033;BME280;6583;42.632;23.298;2023-02-22T02:03:14;70872.38;;;-146.40;44.78
13033;BME280;6583;42.632;23.298;2023-02-22T02:05:43;70874.41;;;-146.40;44.97
13033;BME280;6583;42.632;23.298;2023-02-22T02:08:20;70876.44;;;-146.40;45.16
13033;BME280;6583;42.632;23.298;2023-02-22T02:10:50;70872.38;;;-146.40;45.00
13033;BME280;6583;42.632;23.298;2023-02-22T02:13:19;70870.38;;;-146.40;45.15
13033;BME280;6583;42.632;23.298;2023-02-22T02:15:46;70870.38;;;-146.40;44.85
13033;BME280;6583;42.632;23.298;2023-02-22T02:18:14;70866.31;;;-146.40;45.32
13033;BME280;6583;42.632;23.298;2023-02-22T02:20:49;70866.31;;;-146.40;44.69
13033;BME280;6583;42.632;23.298;2023-02-22T02:23:43;70870.38;;;-146.40;44.53
13033;BME280;6583;42.632;23.298;2023-02-22T02:26:33;70874.41;;;-146.40;44.97
13033;BME280;6583;42.632;23.298;2023-02-22T02:29:30;70880.47;;;-146.40;45.32
13033;BME280;6583;42.632;23.298;2023-02-22T02:32:18;70878.47;;;-146.40;45.45
13033;BME280;6583;42.632;23.298;2023-02-22T02:34:49;70884.53;;;-146.40;45.80
13033;BME280;6583;42.632;23.298;2023-02-22T02:37:30;70882.50;;;-146.40;45.77
13033;BME280;6583;42.632;23.298;2023-02-22T02:40:07;70890.59;;;-146.40;46.01
13033;BME280;6583;42.632;23.298;2023-02-22T02:42:40;70894.66;;;-146.40;46.42
13033;BME280;6583;42.632;23.298;2023-02-22T02:45:13;70902.75;;;-146.40;46.65
13033;BME280;6583;42.632;23.298;2023-02-22T02:47:46;70908.81;;;-146.40;46.91
13033;BME280;6583;42.632;23.298;2023-02-22T02:50:19;70902.75;;;-146.40;46.54
13033;BME280;6583;42.632;23.298;2023-02-22T02:52:49;70910.84;;;-146.40;45.56
13033;BME280;6583;42.632;23.298;2023-02-22T02:55:19;70910.84;;;-146.40;45.55
13033;BME280;6583;42.632;23.298;2023-02-22T02:57:46;70916.91;;;-146.40;45.99
13033;BME280;6583;42.632;23.298;2023-02-22T03:00:17;70906.78;;;-146.40;46.20
13033;BME280;6583;42.632;23.298;2023-02-22T03:03:04;70916.91;;;-146.40;45.86
13033;BME280;6583;42.632;23.298;2023-02-22T03:05:54;70914.88;;;-146.40;45.56
13033;BME280;6583;42.632;23.298;2023-02-22T03:08:30;70914.88;;;-146.40;46.21
13033;BME280;6583;42.632;23.298;2023-02-22T03:11:05;70920.94;;;-146.40;46.26
13033;BME280;6583;42.632;23.298;2023-02-22T03:13:44;70920.94;;;-146.40;46.51
13033;BME280;6583;42.632;23.298;2023-02-22T03:16:20;70927.03;;;-146.40;46.17
13033;BME280;6583;42.632;23.298;2023-02-22T03:18:55;70927.03;;;-146.40;45.59
13033;BME280;6583;42.632;23.298;2023-02-22T03:21:29;70910.84;;;-146.40;46.08
13033;BME280;6583;42.632;23.298;2023-02-22T03:24:02;70906.78;;;-146.40;45.25
13033;BME280;6583;42.632;23.298;2023-02-22T03:26:35;70902.75;;;-146.40;45.47
13033;BME280;6583;42.632;23.298;2023-02-22T03:29:06;70898.69;;;-146.40;45.72
13033;BME280;6583;42.632;23.298;2023-02-22T03:31:39;70900.72;;;-146.40;45.56
13033;BME280;6583;42.632;23.298;2023-02-22T03:34:11;70894.66;;;-146.40;45.62
13033;BME280;6583;42.632;23.298;2023-02-22T03:36:42;70886.56;;;-146.40;45.33
13033;BME280;6583;42.632;23.298;2023-02-22T03:39:14;70892.63;;;-146.40;45.52
13033;BME280;6583;42.632;23.298;2023-02-22T03:41:44;70878.47;;;-146.40;45.14
13033;BME280;6583;42.632;23.298;2023-02-22T03:44:18;70882.50;;;-146.40;44.82
13033;BME280;6583;42.632;23.298;2023-02-22T03:46:47;70874.41;;;-146.40;45.36
13033;BME280;6583;42.632;23.298;2023-02-22T03:49:22;70866.31;;;-146.40;44.80
13033;BME280;6583;42.632;23.298;2023-02-22T03:51:54;70860.25;;;-146.40;45.40
13033;BME280;6583;42.632;23.298;2023-02-22T03:54:21;70856.19;;;-146.40;44.90
13033;BME280;6583;42.632;23.298;2023-02-22T03:56:50;70850.13;;;-146.40;44.62
13033;BME280;6583;42.632;23.298;2023-02-22T03:59:19;70838.00;;;-146.40;45.01
13033;BME280;6583;42.632;23.298;2023-02-22T04:01:50;70833.94;;;-146.40;44.63
13033;BME280;6583;42.632;23.298;2023-02-22T04:04:18;70825.84;;;-146.40;44.07
13033;BME280;6583;42.632;23.298;2023-02-22T04:06:46;70811.69;;;-146.40;44.00
13033;BME280;6583;42.632;23.298;2023-02-22T04:09:14;70795.50;;;-146.40;43.30
13033;BME280;6583;42.632;23.298;2023-02-22T04:11:41;70789.44;;;-146.40;43.84
13033;BME280;6583;42.632;23.298;2023-02-22T04:14:07;70777.28;;;-146.40;44.01
13033;BME280;6583;42.632;23.298;2023-02-22T04:16:34;70781.34;;;-146.40;43.64
13033;BME280;6583;42.632;23.298;2023-02-22T04:19:01;70769.19;;;-146.40;43.64
13033;BME280;6583;42.632;23.298;2023-02-22T04:21:29;70759.06;;;-146.40;43.06
13033;BME280;6583;42.632;23.298;2023-02-22T04:23:56;70755.03;;;-146.40;43.14
13033;BME280;6583;42.632;23.298;2023-02-22T04:26:22;70761.09;;;-146.40;43.10
13033;BME280;6583;42.632;23.298;2023-02-22T04:28:49;70753.00;;;-146.40;43.19
13033;BME280;6583;42.632;23.298;2023-02-22T04:31:16;70755.03;;;-146.40;43.28
13033;BME280;6583;42.632;23.298;2023-02-22T04:33:43;70761.09;;;-146.40;43.33
13033;BME280;6583;42.632;23.298;2023-02-22T04:36:09;70765.16;;;-146.40;43.11
13033;BME280;6583;42.632;23.298;2023-02-22T04:38:39;70773.25;;;-146.40;43.27
13033;BME280;6583;42.632;23.298;2023-02-22T04:41:05;70785.38;;;-146.40;43.73
13033;BME280;6583;42.632;23.298;2023-02-22T04:43:32;70793.47;;;-146.40;43.70
13033;BME280;6583;42.632;23.298;2023-02-22T04:45:59;70797.53;;;-146.40;44.60
13033;BME280;6583;42.632;23.298;2023-02-22T04:48:25;70805.63;;;-146.40;45.22
13033;BME280;6583;42.632;23.298;2023-02-22T04:50:52;70821.81;;;-146.40;45.71
13033;BME280;6583;42.632;23.298;2023-02-22T04:53:19;70827.88;;;-146.40;46.20
13033;BME280;6583;42.632;23.298;2023-02-22T04:55:47;70829.91;;;-146.40;46.48
13033;BME280;6583;42.632;23.298;2023-02-22T04:58:13;70838.00;;;-146.40;46.37
13033;BME280;6583;42.632;23.298;2023-02-22T05:00:40;70840.00;;;-146.40;46.67
13033;BME280;6583;42.632;23.298;2023-02-22T05:03:09;70850.13;;;-146.40;46.94
13033;BME280;6583;42.632;23.298;2023-02-22T05:05:36;70852.16;;;-146.40;46.88
13033;BME280;6583;42.632;23.298;2023-02-22T05:08:03;70854.19;;;-146.40;47.56
13033;BME280;6583;42.632;23.298;2023-02-22T05:10:30;70862.28;;;-146.40;47.21
13033;BME280;6583;42.632;23.298;2023-02-22T05:12:58;70858.22;;;-146.40;47.42
13033;BME280;6583;42.632;23.298;2023-02-22T05:15:24;70874.41;;;-146.40;47.92
13033;BME280;6583;42.632;23.298;2023-02-22T05:17:51;70882.50;;;-146.40;47.96
13033;BME280;6583;42.632;23.298;2023-02-22T05:20:23;70894.66;;;-146.40;48.50
13033;BME280;6583;42.632;23.298;2023-02-22T05:22:52;70904.75;;;-146.40;48.91
13033;BME280;6583;42.632;23.298;2023-02-22T05:25:20;70910.84;;;-146.40;49.11
13033;BME280;6583;42.632;23.298;2023-02-22T05:27:49;70920.94;;;-146.40;49.32
13033;BME280;6583;42.632;23.298;2023-02-22T05:30:19;70927.03;;;-146.40;49.92
13033;BME280;6583;42.632;23.298;2023-02-22T05:32:48;70939.16;;;-146.40;50.09
13033;BME280;6583;42.632;23.298;2023-02-22T05:35:15;70935.13;;;-146.40;49.70
13033;BME280;6583;42.632;23.298;2023-02-22T05:37:42;70947.25;;;-146.40;50.13
13033;BME280;6583;42.632;23.298;2023-02-22T05:40:10;70951.31;;;-146.40;50.29
13033;BME280;6583;42.632;23.298;2023-02-22T05:42:36;70963.44;;;-146.40;51.10
13033;BME280;6583;42.632;23.298;2023-02-22T05:45:04;70955.34;;;-146.40;51.30
13033;BME280;6583;42.632;23.298;2023-02-22T05:47:32;70959.41;;;-146.40;51.90
13033;BME280;6583;42.632;23.298;2023-02-22T05:49:59;70955.34;;;-146.40;51.73
13033;BME280;6583;42.632;23.298;2023-02-22T05:52:26;70947.25;;;-146.40;51.82
13033;BME280;6583;42.632;23.298;2023-02-22T05:54:52;70945.22;;;-146.40;51.51
13033;BME280;6583;42.632;23.298;2023-02-22T05:57:19;70943.22;;;-146.40;50.31
13033;BME280;6583;42.632;23.298;2023-02-22T05:59:46;70931.06;;;-146.40;50.09
13033;BME280;6583;42.632;23.298;2023-02-22T06:02:12;70927.03;;;-146.40;51.35
13033;BME280;6583;42.632;23.298;2023-02-22T06:04:43;70920.94;;;-146.40;50.67
13033;BME280;6583;42.632;23.298;2023-02-22T06:07:09;70914.88;;;-146.40;51.14
13033;BME280;6583;42.632;23.298;2023-02-22T06:09:36;70918.94;;;-146.40;51.25
13033;BME280;6583;42.632;23.298;2023-02-22T06:12:03;70918.94;;;-146.40;50.72
13033;BME280;6583;42.632;23.298;2023-02-22T06:14:30;70910.84;;;-146.40;51.73
13033;BME280;6583;42.632;23.298;2023-02-22T06:16:57;70916.91;;;-146.40;51.06
13033;BME280;6583;42.632;23.298;2023-02-22T06:19:25;70908.81;;;-146.40;50.77
13033;BME280;6583;42.632;23.298;2023-02-22T06:21:55;70902.75;;;-146.40;49.42
13033;BME280;6583;42.632;23.298;2023-02-22T06:24:24;70888.56;;;-146.40;50.51
13033;BME280;6583;42.632;23.298;2023-02-22T06:26:53;70880.47;;;-146.40;49.57
13033;BME280;6583;42.632;23.298;2023-02-22T06:29:21;70870.38;;;-146.40;49.54
13033;BME280;6583;42.632;23.298;2023-02-22T06:31:47;70856.19;;;-146.40;49.75
13033;BME280;6583;42.632;23.298;2023-02-22T06:34:14;70854.19;;;-146.40;48.78
13033;BME280;6583;42.632;23.298;2023-02-22T06:36:41;70842.03;;;-146.40;49.36
13033;BME280;6583;42.632;23.298;2023-02-22T06:39:09;70831.91;;;-146.40;49.09
13033;BME280;6583;42.632;23.298;2023-02-22T06:41:36;70815.72;;;-146.40;49.63
13033;BME280;6583;42.632;23.298;2023-02-22T06:44:03;70799.53;;;-146.40;48.98
13033;BME280;6583;42.632;23.298;2023-02-22T06:46:30;70779.31;;;-146.40;49.34
13033;BME280;6583;42.632;23.298;2023-02-22T06:48:57;70757.06;;;-146.40;47.75
13033;BME280;6583;42.632;23.298;2023-02-22T06:51:24;70728.72;;;-146.40;46.70
13033;BME280;6583;42.632;23.298;2023-02-22T06:53:51;70698.38;;;-146.40;45.31
13033;BME280;6583;42.632;23.298;2023-02-22T06:56:20;70670.06;;;-146.40;44.91
13033;BME280;6583;42.632;23.298;2023-02-22T06:58:46;70651.84;;;-146.40;45.36
13033;BME280;6583;42.632;23.298;2023-02-22T07:01:14;70621.50;;;-146.40;41.68
13033;BME280;6583;42.632;23.298;2023-02-22T07:03:41;70615.41;;;-146.40;41.89
13033;BME280;6583;42.632;23.298;2023-02-22T07:06:08;70633.63;;;-146.40;42.37
13033;BME280;6583;42.632;23.298;2023-02-22T07:08:35;70651.84;;;-146.40;41.57
13033;BME280;6583;42.632;23.298;2023-02-22T07:11:02;70676.13;;;-146.40;42.02
13033;BME280;6583;42.632;23.298;2023-02-22T07:13:30;70698.38;;;-146.40;42.27
13033;BME280;6583;42.632;23.298;2023-02-22T07:15:57;70718.59;;;-146.40;42.74
13033;BME280;6583;42.632;23.298;2023-02-22T07:18:24;70728.72;;;-146.40;43.20
13033;BME280;6583;42.632;23.298;2023-02-22T07:20:50;70732.78;;;-146.40;42.69
13033;BME280;6583;42.632;23.298;2023-02-22T07:23:19;70732.78;;;-146.40;43.49
13033;BME280;6583;42.632;23.298;2023-02-22T07:25:45;70736.81;;;-146.40;43.84
13033;BME280;6583;42.632;23.298;2023-02-22T07:28:12;70724.69;;;-146.40;44.28
13033;BME280;6583;42.632;23.298;2023-02-22T07:30:40;70716.59;;;-146.40;43.22
13033;BME280;6583;42.632;23.298;2023-02-22T07:33:09;70712.53;;;-146.40;43.83
13033;BME280;6583;42.632;23.298;2023-02-22T07:35:37;70712.53;;;-146.40;42.73
13033;BME280;6583;42.632;23.298;2023-02-22T07:38:05;70722.66;;;-146.40;43.37
13033;BME280;6583;42.632;23.298;2023-02-22T07:40:34;70712.53;;;-146.40;43.25
13033;BME280;6583;42.632;23.298;2023-02-22T07:43:02;70710.50;;;-146.40;42.48
13033;BME280;6583;42.632;23.298;2023-02-22T07:45:31;70714.56;;;-146.40;42.70
13033;BME280;6583;42.632;23.298;2023-02-22T07:48:00;70720.63;;;-146.40;42.76
13033;BME280;6583;42.632;23.298;2023-02-22T07:50:30;70706.47;;;-146.40;43.56
13033;BME280;6583;42.632;23.298;2023-02-22T07:52:58;70700.41;;;-146.40;44.90
13033;BME280;6583;42.632;23.298;2023-02-22T07:55:27;70694.34;;;-146.40;43.52
13033;BME280;6583;42.632;23.298;2023-02-22T07:57:55;70672.06;;;-146.40;43.75
13033;BME280;6583;42.632;23.298;2023-02-22T08:00:24;70661.97;;;-146.40;44.00
13033;BME280;6583;42.632;23.298;2023-02-22T08:02:51;70643.75;;;-146.40;43.81
13033;BME280;6583;42.632;23.298;2023-02-22T08:05:21;70625.53;;;-146.40;43.38
13033;BME280;6583;42.632;23.298;2023-02-22T08:07:48;70605.31;;;-146.40;42.42
13033;BME280;6583;42.632;23.298;2023-02-22T08:10:17;70587.09;;;-146.40;42.68
13033;BME280;6583;42.632;23.298;2023-02-22T08:12:44;70566.88;;;-146.40;41.94
13033;BME280;6583;42.632;23.298;2023-02-22T08:15:17;70554.72;;;-146.40;41.09
13033;BME280;6583;42.632;23.298;2023-02-22T08:17:44;70548.66;;;-146.40;42.03
13033;BME280;6583;42.632;23.298;2023-02-22T08:20:10;70536.50;;;-146.40;41.20
13033;BME280;6583;42.632;23.298;2023-02-22T08:22:42;70530.44;;;-146.40;40.80
13033;BME280;6583;42.632;23.298;2023-02-22T08:25:08;70522.34;;;-146.40;40.78
13033;BME280;6583;42.632;23.298;2023-02-22T08:27:35;70518.31;;;-146.40;40.61
13033;BME280;6583;42.632;23.298;2023-02-22T08:30:02;70502.13;;;-146.40;39.96
13033;BME280;6583;42.632;23.298;2023-02-22T08:32:29;70500.09;;;-146.40;39.99
13033;BME280;6583;42.632;23.298;2023-02-22T08:34:55;70489.97;;;-146.40;39.95
13033;BME280;6583;42.632;23.298;2023-02-22T08:37:22;70483.91;;;-146.40;39.75
13033;BME280;6583;42.632;23.298;2023-02-22T08:39:51;70481.88;;;-146.40;39.51
13033;BME280;6583;42.632;23.298;2023-02-22T08:42:20;70471.78;;;-146.40;40.27
13033;BME280;6583;42.632;23.298;2023-02-22T08:44:47;70463.69;;;-146.40;39.28
13033;BME280;6583;42.632;23.298;2023-02-22T08:47:13;70449.53;;;-146.40;39.21
13033;BME280;6583;42.632;23.298;2023-02-22T08:49:40;70437.38;;;-146.40;38.64
13033;BME280;6583;42.632;23.298;2023-02-22T08:52:07;70429.28;;;-146.40;38.31
13033;BME280;6583;42.632;23.298;2023-02-22T08:54:34;70413.09;;;-146.40;38.88
13033;BME280;6583;42.632;23.298;2023-02-22T08:57:02;70405.00;;;-146.40;38.55
13033;BME280;6583;42.632;23.298;2023-02-22T08:59:29;70390.84;;;-146.40;38.47
13033;BME280;6583;42.632;23.298;2023-02-22T09:01:55;70376.69;;;-146.40;38.79
13033;BME280;6583;42.632;23.298;2023-02-22T09:04:22;70362.53;;;-146.40;37.96
13033;BME280;6583;42.632;23.298;2023-02-22T09:06:49;70342.28;;;-146.40;37.09
13033;BME280;6583;42.632;23.298;2023-02-22T09:09:17;70332.19;;;-146.40;36.87
13033;BME280;6583;42.632;23.298;2023-02-22T09:11:45;70318.00;;;-146.40;36.63
13033;BME280;6583;42.632;23.298;2023-02-22T09:14:14;70303.84;;;-146.40;36.47
13033;BME280;6583;42.632;23.298;2023-02-22T09:16:42;70299.81;;;-146.40;36.58
13033;BME280;6583;42.632;23.298;2023-02-22T09:19:09;70293.75;;;-146.40;37.12
13033;BME280;6583;42.632;23.298;2023-02-22T09:21:35;70275.53;;;-146.40;36.76
13033;BME280;6583;42.632;23.298;2023-02-22T09:24:03;70263.38;;;-146.40;36.39
13033;BME280;6583;42.632;23.298;2023-02-22T09:26:33;70255.28;;;-146.40;36.28
13033;BME280;6583;42.632;23.298;2023-02-22T09:28:59;70259.34;;;-146.40;35.90
13033;BME280;6583;42.632;23.298;2023-02-22T09:31:27;70247.22;;;-146.40;35.67
13033;BME280;6583;42.632;23.298;2023-02-22T09:33:54;70241.13;;;-146.40;35.96
13033;BME280;6583;42.632;23.298;2023-02-22T09:36:20;70235.06;;;-146.40;35.99
13033;BME280;6583;42.632;23.298;2023-02-22T09:38:48;70218.88;;;-146.40;36.15
13033;BME280;6583;42.632;23.298;2023-02-22T09:41:17;70226.97;;;-146.40;35.94
13033;BME280;6583;42.632;23.298;2023-02-22T09:43:49;70226.97;;;-146.40;35.84
13033;BME280;6583;42.632;23.298;2023-02-22T09:46:27;70212.81;;;-146.40;35.64
13033;BME280;6583;42.632;23.298;2023-02-22T09:49:02;70206.75;;;-146.40;35.65
13033;BME280;6583;42.632;23.298;2023-02-22T09:51:35;70194.59;;;-146.40;35.50
13033;BME280;6583;42.632;23.298;2023-02-22T09:54:10;70194.59;;;-146.40;35.40
13033;BME280;6583;42.632;23.298;2023-02-22T09:56:43;70186.50;;;-146.40;35.40
13033;BME280;6583;42.632;23.298;2023-02-22T09:59:15;70166.28;;;-146.40;35.53
13033;BME280;6583;42.632;23.298;2023-02-22T10:01:48;70164.25;;;-146.40;35.46
13033;BME280;6583;42.632;23.298;2023-02-22T10:04:23;70152.13;;;-146.40;35.57
13033;BME280;6583;42.632;23.298;2023-02-22T10:07:05;70150.09;;;-146.40;35.41
13033;BME280;6583;42.632;23.298;2023-02-22T10:09:39;70150.09;;;-146.40;34.91
13033;BME280;6583;42.632;23.298;2023-02-22T10:12:09;70140.00;;;-146.40;34.91
13033;BME280;6583;42.632;23.298;2023-02-22T10:15:11;70133.91;;;-146.40;34.81
13033;BME280;6583;42.632;23.298;2023-02-22T10:17:48;70125.81;;;-146.40;35.05
13033;BME280;6583;42.632;23.298;2023-02-22T10:20:33;70117.72;;;-146.40;35.02
13033;BME280;6583;42.632;23.298;2023-02-22T10:23:08;70117.72;;;-146.40;34.56
13033;BME280;6583;42.632;23.298;2023-02-22T10:25:41;70109.63;;;-146.40;34.64
13033;BME280;6583;42.632;23.298;2023-02-22T10:28:12;70103.56;;;-146.40;35.96
13033;BME280;6583;42.632;23.298;2023-02-22T10:30:45;70089.41;;;-146.40;35.31
13033;BME280;6583;42.632;23.298;2023-02-22T10:33:22;70073.22;;;-146.40;34.39
13033;BME280;6583;42.632;23.298;2023-02-22T10:35:51;70061.09;;;-146.40;34.27
13033;BME280;6583;42.632;23.298;2023-02-22T10:38:20;70050.97;;;-146.40;33.86
13033;BME280;6583;42.632;23.298;2023-02-22T10:40:52;70061.09;;;-146.40;33.36
13033;BME280;6583;42.632;23.298;2023-02-22T10:43:20;70046.94;;;-146.40;34.00
13033;BME280;6583;42.632;23.298;2023-02-22T10:45:49;70036.81;;;-146.40;33.77
13033;BME280;6583;42.632;23.298;2023-02-22T10:48:20;70038.84;;;-146.40;33.11
13033;BME280;6583;42.632;23.298;2023-02-22T10:50:48;70034.78;;;-146.40;33.17
13033;BME280;6583;42.632;23.298;2023-02-22T10:53:15;70032.78;;;-146.40;33.43
13033;BME280;6583;42.632;23.298;2023-02-22T10:56:04;70032.78;;;-146.40;33.33
13033;BME280;6583;42.632;23.298;2023-02-22T10:58:39;70036.81;;;-146.40;32.95
13033;BME280;6583;42.632;23.298;2023-02-22T11:01:17;70026.69;;;-146.40;33.17
13033;BME280;6583;42.632;23.298;2023-02-22T11:03:55;70020.63;;;-146.40;33.46
13033;BME280;6583;42.632;23.298;2023-02-22T11:06:23;70024.69;;;-146.40;32.82
13033;BME280;6583;42.632;23.298;2023-02-22T11:08:49;70022.66;;;-146.40;32.90
13033;BME280;6583;42.632;23.298;2023-02-22T11:11:22;70014.56;;;-146.40;33.23
13033;BME280;6583;42.632;23.298;2023-02-22T11:13:53;70020.63;;;-146.40;32.78
13033;BME280;6583;42.632;23.298;2023-02-22T11:16:26;70012.53;;;-146.40;34.56
13033;BME280;6583;42.632;23.298;2023-02-22T11:19:00;70002.44;;;-146.40;33.58
13033;BME280;6583;42.632;23.298;2023-02-22T11:21:29;69996.34;;;-146.40;32.70
13033;BME280;6583;42.632;23.298;2023-02-22T11:24:01;69988.25;;;-146.40;32.54
13033;BME280;6583;42.632;23.298;2023-02-22T11:26:37;69988.25;;;-146.40;33.28
13033;BME280;6583;42.632;23.298;2023-02-22T11:29:10;69992.31;;;-146.40;32.55
13033;BME280;6583;42.632;23.298;2023-02-22T11:31:42;69982.19;;;-146.40;33.00
13033;BME280;6583;42.632;23.298;2023-02-22T11:34:27;69982.19;;;-146.40;33.71
13033;BME280;6583;42.632;23.298;2023-02-22T11:36:54;69972.09;;;-146.40;33.43
13033;BME280;6583;42.632;23.298;2023-02-22T11:39:23;69968.03;;;-146.40;34.37
13033;BME280;6583;42.632;23.298;2023-02-22T11:41:50;69959.94;;;-146.40;32.64
13033;BME280;6583;42.632;23.298;2023-02-22T11:44:23;69955.91;;;-146.40;33.40
13033;BME280;6583;42.632;23.298;2023-02-22T11:46:51;69951.84;;;-146.40;33.13
13033;BME280;6583;42.632;23.298;2023-02-22T11:49:20;69951.84;;;-146.40;32.22
13033;BME280;6583;42.632;23.298;2023-02-22T11:51:58;69947.81;;;-146.40;31.99
13033;BME280;6583;42.632;23.298;2023-02-22T11:54:38;69947.81;;;-146.40;32.48
13033;BME280;6583;42.632;23.298;2023-02-22T11:57:14;69933.66;;;-146.40;31.69
13033;BME280;6583;42.632;23.298;2023-02-22T11:59:55;69939.72;;;-146.40;31.36
13033;BME280;6583;42.632;23.298;2023-02-22T12:02:43;69941.75;;;-146.40;32.30
13033;BME280;6583;42.632;23.298;2023-02-22T12:05:22;69943.75;;;-146.40;32.97
13033;BME280;6583;42.632;23.298;2023-02-22T12:08:03;69945.78;;;-146.40;33.02
13033;BME280;6583;42.632;23.298;2023-02-22T12:10:44;69935.66;;;-146.40;32.91
13033;BME280;6583;42.632;23.298;2023-02-22T12:13:28;69939.72;;;-146.40;31.92
13033;BME280;6583;42.632;23.298;2023-02-22T12:16:04;69931.63;;;-146.40;32.69
13033;BME280;6583;42.632;23.298;2023-02-22T12:18:39;69927.59;;;-146.40;32.18
13033;BME280;6583;42.632;23.298;2023-02-22T12:21:12;69935.66;;;-146.40;32.20
13033;BME280;6583;42.632;23.298;2023-02-22T12:23:46;69923.53;;;-146.40;31.69
13033;BME280;6583;42.632;23.298;2023-02-22T12:26:21;69919.50;;;-146.40;31.64
13033;BME280;6583;42.632;23.298;2023-02-22T12:28:53;69915.44;;;-146.40;32.22
13033;BME280;6583;42.632;23.298;2023-02-22T12:31:28;69917.47;;;-146.40;32.86
13033;BME280;6583;42.632;23.298;2023-02-22T12:34:01;69907.34;;;-146.40;32.24
13033;BME280;6583;42.632;23.298;2023-02-22T12:36:35;69905.31;;;-146.40;32.49
13033;BME280;6583;42.632;23.298;2023-02-22T12:39:26;69895.22;;;-146.40;31.63
13033;BME280;6583;42.632;23.298;2023-02-22T12:41:58;69893.19;;;-146.40;31.44
13033;BME280;6583;42.632;23.298;2023-02-22T12:44:30;69895.22;;;-146.40;31.22
13033;BME280;6583;42.632;23.298;2023-02-22T12:46:58;69899.25;;;-146.40;32.01
13033;BME280;6583;42.632;23.298;2023-02-22T12:49:30;69889.16;;;-146.40;32.38
13033;BME280;6583;42.632;23.298;2023-02-22T12:52:02;69891.16;;;-146.40;32.21
13033;BME280;6583;42.632;23.298;2023-02-22T12:54:42;69891.16;;;-146.40;32.78
13033;BME280;6583;42.632;23.298;2023-02-22T12:57:17;69887.13;;;-146.40;32.10